createdAt,value
2023-01-03T00:01:13.641Z,101203.66
2023-01-03T00:03:42.937Z,101059.91
2023-01-03T00:06:17.751Z,101212.63
2023-01-03T00:08:46.252Z,101192.22
2023-01-03T00:11:14.429Z,101129.56
2023-01-03T00:13:41.754Z,101166.56
2023-01-03T00:16:16.675Z,101206.44
2023-01-03T00:18:46.370Z,101201.03
2023-01-03T00:21:14.389Z,101184.19
2023-01-03T00:23:42.447Z,101200.34
2023-01-03T00:26:12.007Z,101199.81
2023-01-03T00:28:40.130Z,101179.72
2023-01-03T00:31:09.057Z,101218.50
2023-01-03T00:33:38.334Z,101221.91
2023-01-03T00:36:09.995Z,101223.59
2023-01-03T00:38:38.738Z,101231.81
2023-01-03T00:41:07.485Z,101227.22
2023-01-03T00:43:36.432Z,101227.34
2023-01-03T00:46:05.071Z,101218.66
2023-01-03T00:48:33.893Z,101240.63
2023-01-03T00:51:08.324Z,101245.00
2023-01-03T00:53:37.060Z,101245.97
2023-01-03T00:56:06.145Z,101231.66
2023-01-03T00:58:35.346Z,101193.78
2023-01-03T01:01:06.955Z,101258.31
2023-01-03T01:03:35.873Z,101253.81
2023-01-03T01:06:14.452Z,101260.97
2023-01-03T01:08:42.865Z,101259.16
2023-01-03T01:11:11.924Z,101253.16
2023-01-03T01:13:41.591Z,101267.25
2023-01-03T01:16:12.230Z,101272.50
2023-01-03T01:18:41.971Z,101255.66
2023-01-03T01:21:13.729Z,101254.78
2023-01-03T01:23:43.107Z,101254.84
2023-01-03T01:26:14.121Z,101279.69
2023-01-03T01:28:42.372Z,101277.94
2023-01-03T01:31:13.150Z,101285.03
2023-01-03T01:33:41.150Z,101197.47
2023-01-03T01:36:11.324Z,101286.66
2023-01-03T01:38:40.646Z,101293.03
2023-01-03T01:41:08.452Z,101289.28
2023-01-03T01:43:53.701Z,101300.19
2023-01-03T01:46:25.180Z,101273.63
2023-01-03T01:48:57.920Z,101254.25
2023-01-03T01:51:28.472Z,101293.94
2023-01-03T01:54:01.031Z,101303.84
2023-01-03T01:56:32.588Z,101284.50
2023-01-03T01:59:00.518Z,101270.47
2023-01-03T02:01:28.697Z,101244.88
2023-01-03T02:04:01.507Z,101319.94
2023-01-03T02:06:32.773Z,101318.22
2023-01-03T02:09:02.368Z,101326.25
2023-01-03T02:11:51.497Z,101290.84
2023-01-03T02:14:37.411Z,101290.84
2023-01-03T02:17:16.758Z,101334.09
2023-01-03T02:20:09.156Z,101340.41
2023-01-03T02:23:06.714Z,101335.97
2023-01-03T02:26:06.528Z,101343.06
2023-01-03T02:29:19.046Z,101335.00
2023-01-03T02:31:56.184Z,101349.84
2023-01-03T02:34:33.298Z,101349.16
2023-01-03T02:37:09.026Z,101316.34
2023-01-03T02:39:47.636Z,101350.81
2023-01-03T02:42:40.861Z,101344.53
2023-01-03T02:45:14.071Z,101343.72
2023-01-03T02:47:50.349Z,101324.34
2023-01-03T02:50:22.554Z,101330.69
2023-01-03T02:52:53.809Z,101341.19
2023-01-03T02:55:26.601Z,101331.38
2023-01-03T02:57:59.497Z,101335.75
2023-01-03T03:00:30.557Z,101337.72
2023-01-03T03:03:04.545Z,101336.84
2023-01-03T03:05:37.597Z,101328.81
2023-01-03T03:08:05.822Z,101334.13
2023-01-03T03:10:51.542Z,101318.34
2023-01-03T03:13:25.579Z,101329.03
2023-01-03T03:15:58.875Z,101337.19
2023-01-03T03:18:34.711Z,101333.56
2023-01-03T03:21:23.495Z,101155.09
2023-01-03T03:24:10.191Z,101344.28
2023-01-03T03:26:42.018Z,101336.38
2023-01-03T03:29:11.960Z,101311.63
2023-01-03T03:31:43.031Z,101343.47
2023-01-03T03:34:17.825Z,101343.38
2023-01-03T03:36:52.663Z,101157.75
2023-01-03T03:39:35.318Z,101338.09
2023-01-03T03:42:34.964Z,101344.41
2023-01-03T03:45:12.012Z,101323.97
2023-01-03T03:47:46.922Z,101346.94
2023-01-03T03:50:22.548Z,101353.19
2023-01-03T03:52:55.228Z,101319.47
2023-01-03T03:55:26.828Z,101176.09
2023-01-03T03:57:58.556Z,101352.81
2023-01-03T04:00:30.968Z,101283.63
2023-01-03T04:03:02.327Z,101350.16
2023-01-03T04:05:35.820Z,101331.69
2023-01-03T04:08:03.988Z,101355.50
2023-01-03T04:10:37.495Z,101356.50
2023-01-03T04:13:06.526Z,101362.69
2023-01-03T04:15:34.532Z,101364.50
2023-01-03T04:18:02.665Z,101341.59
2023-01-03T04:20:32.118Z,101368.91
2023-01-03T04:23:01.085Z,101376.97
2023-01-03T04:25:29.055Z,101377.75
2023-01-03T04:27:57.953Z,101383.94
2023-01-03T04:30:25.831Z,101346.91
2023-01-03T04:32:53.775Z,101378.84
2023-01-03T04:35:21.659Z,101379.66
2023-01-03T04:37:51.162Z,101386.75
2023-01-03T04:40:19.077Z,101365.56
2023-01-03T04:43:04.230Z,101369.13
2023-01-03T04:45:32.358Z,101308.16
2023-01-03T04:48:01.344Z,101381.53
2023-01-03T04:50:30.634Z,101356.69
2023-01-03T04:53:00.234Z,101394.84
2023-01-03T04:55:28.151Z,101392.25
2023-01-03T04:57:55.952Z,101388.75
2023-01-03T05:00:23.837Z,101225.16
2023-01-03T05:02:51.652Z,101394.09
2023-01-03T05:05:19.686Z,101383.47
2023-01-03T05:07:47.507Z,101360.41
2023-01-03T05:10:16.713Z,101395.00
2023-01-03T05:12:59.572Z,101398.56
2023-01-03T05:15:28.012Z,101382.69
2023-01-03T05:17:55.987Z,101396.94
2023-01-03T05:20:41.575Z,101392.56
2023-01-03T05:23:30.887Z,101370.50
2023-01-03T05:26:00.959Z,101391.72
2023-01-03T05:28:29.379Z,101389.06
2023-01-03T05:30:59.002Z,101399.66
2023-01-03T05:33:27.511Z,101401.41
2023-01-03T05:35:55.269Z,101403.13
2023-01-03T05:38:23.845Z,101402.25
2023-01-03T05:40:52.210Z,101407.56
2023-01-03T05:43:21.449Z,101408.47
2023-01-03T05:45:51.823Z,101318.25
2023-01-03T05:48:20.243Z,101405.75
2023-01-03T05:50:49.809Z,101421.75
2023-01-03T05:53:18.418Z,101389.06
2023-01-03T05:55:46.302Z,101396.19
2023-01-03T05:58:14.456Z,101417.44
2023-01-03T06:00:43.683Z,101431.63
2023-01-03T06:03:11.583Z,101421.84
2023-01-03T06:05:43.252Z,101432.50
2023-01-03T06:08:14.211Z,101414.81
2023-01-03T06:10:42.331Z,101387.41
2023-01-03T06:13:10.292Z,101445.03
2023-01-03T06:15:38.219Z,101452.09
2023-01-03T06:18:06.518Z,101448.50
2023-01-03T06:20:34.377Z,101427.19
2023-01-03T06:23:02.232Z,101436.97
2023-01-03T06:25:30.060Z,101446.72
2023-01-03T06:27:57.965Z,101441.41
2023-01-03T06:30:26.322Z,101452.91
2023-01-03T06:32:54.087Z,101460.88
2023-01-03T06:35:23.341Z,101457.34
2023-01-03T06:37:51.202Z,101464.41
2023-01-03T06:40:19.426Z,101451.03
2023-01-03T06:42:47.251Z,101366.13
2023-01-03T06:45:33.333Z,101464.41
2023-01-03T06:48:23.249Z,101461.81
2023-01-03T06:51:10.387Z,101462.69
2023-01-03T06:53:39.972Z,101461.78
2023-01-03T06:56:08.731Z,101471.44
2023-01-03T06:58:37.671Z,101478.47
2023-01-03T07:01:06.285Z,101462.66
2023-01-03T07:03:34.837Z,101468.91
2023-01-03T07:06:04.082Z,101476.94
2023-01-03T07:08:31.965Z,101478.72
2023-01-03T07:10:59.858Z,101471.69
2023-01-03T07:13:41.574Z,101484.09
2023-01-03T07:16:15.210Z,101451.34
2023-01-03T07:18:44.355Z,101477.91
2023-01-03T07:21:18.166Z,101454.03
2023-01-03T07:23:45.938Z,101485.97
2023-01-03T07:26:13.818Z,101495.75
2023-01-03T07:28:41.740Z,101490.44
2023-01-03T07:31:09.688Z,101497.56
2023-01-03T07:33:39.215Z,101501.09
2023-01-03T07:36:12.166Z,101509.97
2023-01-03T07:38:43.028Z,101480.69
2023-01-03T07:41:11.760Z,101514.41
2023-01-03T07:43:41.449Z,101517.97
2023-01-03T07:46:11.592Z,101518.81
2023-01-03T07:48:39.968Z,101504.66
2023-01-03T07:51:09.238Z,101524.16
2023-01-03T07:53:41.572Z,101508.16
2023-01-03T07:56:13.462Z,101527.69
2023-01-03T07:58:42.929Z,101527.69
2023-01-03T08:01:14.045Z,101526.78
2023-01-03T08:03:43.321Z,101540.09
2023-01-03T08:06:13.337Z,101540.06
2023-01-03T08:08:42.790Z,101546.28
2023-01-03T08:11:30.385Z,101544.53
2023-01-03T08:13:58.203Z,101539.22
2023-01-03T08:16:26.684Z,101505.50
2023-01-03T08:18:54.564Z,101535.66
2023-01-03T08:21:22.404Z,101538.31
2023-01-03T08:23:51.669Z,101541.84
2023-01-03T08:26:20.871Z,101546.28
2023-01-03T08:28:48.715Z,101548.97
2023-01-03T08:31:20.213Z,101553.34
2023-01-03T08:33:53.551Z,101559.53
2023-01-03T08:36:23.800Z,101551.56
2023-01-03T08:38:56.107Z,101553.25
2023-01-03T08:41:27.520Z,101559.47
2023-01-03T08:43:56.261Z,101551.50
2023-01-03T08:46:24.296Z,101558.63
2023-01-03T08:48:52.909Z,101533.81
2023-01-03T08:51:20.966Z,101548.06
2023-01-03T08:53:48.915Z,101545.41
2023-01-03T08:56:20.107Z,101542.78
2023-01-03T08:58:48.261Z,101529.47
2023-01-03T09:01:16.116Z,101557.84
2023-01-03T09:03:44.278Z,101554.31
2023-01-03T09:06:12.164Z,101488.69
2023-01-03T09:08:40.164Z,101554.34
2023-01-03T09:11:09.364Z,101558.75
2023-01-03T09:13:39.211Z,101561.44
2023-01-03T09:16:09.266Z,101549.91
2023-01-03T09:18:37.755Z,101569.41
2023-01-03T09:21:06.488Z,101562.28
2023-01-03T09:23:36.016Z,101575.63
2023-01-03T09:26:03.942Z,101572.06
2023-01-03T09:28:31.806Z,101573.84
2023-01-03T09:31:01.349Z,101551.66
2023-01-03T09:33:29.299Z,101543.63
2023-01-03T09:35:57.629Z,101571.09
2023-01-03T09:38:25.559Z,101572.88
2023-01-03T09:41:00.642Z,101578.25
2023-01-03T09:43:36.864Z,101573.78
2023-01-03T09:46:06.654Z,101583.50
2023-01-03T09:48:36.765Z,101571.09
2023-01-03T09:51:29.746Z,101590.56
2023-01-03T09:54:17.016Z,101578.97
2023-01-03T09:57:02.553Z,101575.41
2023-01-03T09:59:54.746Z,101574.47
2023-01-03T10:03:10.661Z,101562.94
2023-01-03T10:05:59.029Z,101544.31
2023-01-03T10:08:37.464Z,101564.66
2023-01-03T10:11:08.416Z,101558.41
2023-01-03T10:13:51.832Z,101555.72
2023-01-03T10:16:31.553Z,101563.72
2023-01-03T10:19:13.489Z,101560.19
2023-01-03T10:21:50.062Z,101565.44
2023-01-03T10:24:20.209Z,101528.22
2023-01-03T10:26:50.660Z,101553.88
2023-01-03T10:29:20.189Z,101530.78
2023-01-03T10:32:06.422Z,101561.78
2023-01-03T10:34:36.184Z,101548.47
2023-01-03T10:37:10.269Z,101547.69
2023-01-03T10:39:38.194Z,101533.41
2023-01-03T10:42:06.716Z,101555.59
2023-01-03T10:44:34.765Z,101531.59
2023-01-03T10:47:11.311Z,101543.94
2023-01-03T10:49:45.692Z,101539.41
2023-01-03T10:52:18.263Z,101525.97
2023-01-03T10:54:51.538Z,101527.91
2023-01-03T10:57:40.166Z,101505.69
2023-01-03T11:00:24.951Z,101510.97
2023-01-03T11:02:53.367Z,101487.06
2023-01-03T11:05:24.768Z,101503.81
2023-01-03T11:07:56.088Z,101510.03
2023-01-03T11:10:25.835Z,101508.22
2023-01-03T11:12:54.858Z,101512.59
2023-01-03T11:15:38.899Z,101506.31
2023-01-03T11:18:17.655Z,101508.03
2023-01-03T11:20:53.469Z,101504.56
2023-01-03T11:23:28.466Z,101503.59
2023-01-03T11:26:05.537Z,101498.97
2023-01-03T11:28:55.797Z,101497.16
2023-01-03T11:31:35.729Z,101394.63
2023-01-03T11:34:18.744Z,101387.38
2023-01-03T11:36:53.161Z,101488.25
2023-01-03T11:39:47.284Z,101467.91
2023-01-03T11:42:35.549Z,101491.75
2023-01-03T11:45:32.160Z,101490.03
2023-01-03T11:48:12.458Z,101483.78
2023-01-03T11:50:46.536Z,101484.66
2023-01-03T11:53:30.842Z,101475.69
2023-01-03T11:56:21.185Z,101477.34
2023-01-03T11:59:10.499Z,101348.22
2023-01-03T12:01:54.877Z,101446.31
2023-01-03T12:04:30.256Z,101444.66
2023-01-03T12:10:03.419Z,101462.50
2023-01-03T12:12:46.947Z,101469.56
2023-01-03T12:15:22.115Z,101464.25
2023-01-03T12:17:55.791Z,101451.75
2023-01-03T12:20:27.646Z,101453.50
2023-01-03T12:23:02.111Z,101465.03
2023-01-03T12:25:37.065Z,101442.84
2023-01-03T12:28:13.489Z,101357.16
2023-01-03T12:30:47.668Z,101251.84
2023-01-03T12:33:26.013Z,101454.22
2023-01-03T12:36:00.123Z,101448.94
2023-01-03T12:38:32.392Z,101447.19
2023-01-03T12:41:08.021Z,101422.38
2023-01-03T12:43:45.765Z,101430.34
2023-01-03T12:46:19.469Z,101431.16
2023-01-03T12:48:57.694Z,101427.63
2023-01-03T12:51:25.802Z,101440.91
2023-01-03T12:54:06.517Z,101410.81
2023-01-03T12:56:59.992Z,101423.09
2023-01-03T12:59:43.555Z,101450.63
2023-01-03T13:02:22.643Z,101447.06
2023-01-03T13:04:55.686Z,101443.53
2023-01-03T13:07:27.920Z,101232.22
2023-01-03T13:10:01.423Z,101430.94
2023-01-03T13:12:35.087Z,101270.13
2023-01-03T13:15:15.976Z,101299.13
2023-01-03T13:17:46.220Z,101424.66
2023-01-03T13:20:35.197Z,101420.16
2023-01-03T13:23:31.784Z,101415.78
2023-01-03T13:26:19.329Z,101416.81
2023-01-03T13:28:48.730Z,101417.63
2023-01-03T13:31:38.083Z,101292.19
2023-01-03T13:34:33.930Z,101404.34
2023-01-03T13:37:19.152Z,101413.94
2023-01-03T13:40:20.501Z,101308.78
2023-01-03T13:42:48.861Z,101363.56
2023-01-03T13:45:56.371Z,101409.41
2023-01-03T13:48:57.747Z,101411.16
2023-01-03T13:51:48.445Z,101403.94
2023-01-03T13:55:06.986Z,101408.53
2023-01-03T13:57:51.835Z,101382.84
2023-01-03T14:00:23.940Z,101411.19
2023-01-03T14:03:16.796Z,101319.50
2023-01-03T14:06:30.593Z,101417.63
2023-01-03T14:09:49.271Z,101404.28
2023-01-03T14:12:59.668Z,101414.03
2023-01-03T14:15:27.562Z,101408.78
2023-01-03T14:17:59.162Z,101418.50
2023-01-03T14:20:30.565Z,101322.94
2023-01-03T14:23:17.037Z,101391.97
2023-01-03T14:25:52.925Z,101411.47
2023-01-03T14:28:24.328Z,101415.91
2023-01-03T14:31:02.368Z,101418.50
2023-01-03T14:33:35.899Z,101382.31
2023-01-03T14:36:05.796Z,101400.81
2023-01-03T14:38:36.746Z,101400.81
2023-01-03T14:41:04.847Z,101426.63
2023-01-03T14:43:35.325Z,101326.78
2023-01-03T14:46:07.360Z,101432.88
2023-01-03T14:48:35.930Z,101428.25
2023-01-03T14:51:06.041Z,101224.09
2023-01-03T14:53:36.146Z,101432.78
2023-01-03T14:56:04.530Z,101307.16
2023-01-03T14:58:37.495Z,101423.84
2023-01-03T15:01:08.555Z,101435.38
2023-01-03T15:03:39.570Z,101431.94
2023-01-03T15:06:20.426Z,101432.00
2023-01-03T15:08:51.956Z,101450.66
2023-01-03T15:11:31.927Z,101259.66
2023-01-03T15:14:03.290Z,101390.44
2023-01-03T15:16:35.897Z,101434.69
2023-01-03T15:19:09.870Z,101250.00
2023-01-03T15:21:37.797Z,101432.13
2023-01-03T15:24:15.381Z,101337.63
2023-01-03T15:26:46.180Z,101408.28
2023-01-03T15:29:15.901Z,101440.25
2023-01-03T15:31:49.910Z,101413.81
2023-01-03T15:34:20.019Z,101448.47
2023-01-03T15:36:53.148Z,101438.66
2023-01-03T15:39:24.654Z,101429.84
2023-01-03T15:45:03.580Z,101322.06
2023-01-03T15:47:32.366Z,101435.31
2023-01-03T15:50:03.841Z,101421.97
2023-01-03T15:52:31.803Z,101417.56
2023-01-03T15:55:01.231Z,101427.31
2023-01-03T15:57:31.423Z,101438.88
2023-01-03T16:00:02.960Z,101414.97
2023-01-03T16:02:33.694Z,101430.00
2023-01-03T16:05:01.982Z,101327.41
2023-01-03T16:07:29.836Z,101414.09
2023-01-03T16:09:57.755Z,101405.28
2023-01-03T16:12:33.801Z,101418.53
2023-01-03T16:15:02.829Z,101385.88
2023-01-03T16:17:32.175Z,101376.16
2023-01-03T16:20:00.720Z,101385.91
2023-01-03T16:22:34.895Z,101380.50
2023-01-03T16:25:03.862Z,101421.22
2023-01-03T16:27:33.338Z,101430.00
2023-01-03T16:30:01.380Z,101395.44
2023-01-03T16:32:31.308Z,101419.19
2023-01-03T16:35:02.553Z,101421.03
2023-01-03T16:37:30.481Z,101418.41
2023-01-03T16:39:59.245Z,101398.00
2023-01-03T16:42:28.668Z,101415.63
2023-01-03T16:44:58.082Z,101422.81
2023-01-03T16:47:30.714Z,101429.06
2023-01-03T16:50:01.829Z,101393.56
2023-01-03T16:52:35.306Z,101429.81
2023-01-03T16:55:07.254Z,101415.72
2023-01-03T16:57:35.239Z,101306.03
2023-01-03T17:00:14.485Z,101221.19
2023-01-03T17:02:42.747Z,101304.41
2023-01-03T17:05:10.978Z,101412.28
2023-01-03T17:07:39.598Z,101380.41
2023-01-03T17:10:09.036Z,101335.34
2023-01-03T17:12:37.144Z,101219.63
2023-01-03T17:15:07.442Z,101388.41
2023-01-03T17:17:35.156Z,101414.97
2023-01-03T17:20:05.275Z,101359.28
2023-01-03T17:22:33.930Z,101405.22
2023-01-03T17:25:01.903Z,101405.25
2023-01-03T17:27:33.192Z,101403.38
2023-01-03T17:30:05.063Z,101407.00
2023-01-03T17:32:34.563Z,101405.22
2023-01-03T17:35:04.990Z,101394.53
2023-01-03T17:37:51.432Z,101405.06
2023-01-03T17:40:31.031Z,101378.56
2023-01-03T17:43:01.701Z,101292.84
2023-01-03T17:45:47.423Z,101387.44
2023-01-03T17:48:36.799Z,101395.44
2023-01-03T17:51:05.565Z,101347.72
2023-01-03T17:53:33.864Z,101206.41
2023-01-03T17:56:01.953Z,101400.91
2023-01-03T17:58:33.122Z,101416.03
2023-01-03T18:01:01.560Z,101419.66
2023-01-03T18:03:31.185Z,101325.09
2023-01-03T18:06:03.343Z,101398.50
2023-01-03T18:08:31.243Z,101415.28
2023-01-03T18:10:59.213Z,101406.31
2023-01-03T18:13:29.355Z,101410.72
2023-01-03T18:15:57.423Z,101377.03
2023-01-03T18:18:26.862Z,101402.78
2023-01-03T18:20:56.731Z,101396.44
2023-01-03T18:23:29.232Z,101315.19
2023-01-03T18:25:59.362Z,101387.72
2023-01-03T18:28:28.968Z,101384.19
2023-01-03T18:30:57.971Z,101259.63
2023-01-03T18:33:26.257Z,101365.78
2023-01-03T18:35:56.265Z,101292.31
2023-01-03T18:38:27.352Z,101389.66
2023-01-03T18:41:02.504Z,101386.22
2023-01-03T18:43:33.912Z,101400.38
2023-01-03T18:46:02.374Z,101400.31
2023-01-03T18:48:30.562Z,101395.09
2023-01-03T18:51:00.226Z,101387.06
2023-01-03T18:53:32.195Z,101250.94
2023-01-03T18:56:00.473Z,101370.31
2023-01-03T18:58:32.909Z,101381.09
2023-01-03T19:01:00.941Z,101380.19
2023-01-03T19:03:30.955Z,101397.03
2023-01-03T19:06:01.876Z,101392.63
2023-01-03T19:08:33.691Z,101378.50
2023-01-03T19:11:06.429Z,101328.06
2023-01-03T19:13:49.957Z,101379.38
2023-01-03T19:16:20.020Z,101375.81
2023-01-03T19:18:48.023Z,101340.50
2023-01-03T19:21:19.110Z,101372.34
2023-01-03T19:23:52.748Z,101372.34
2023-01-03T19:26:28.872Z,101369.69
2023-01-03T19:29:00.223Z,101367.94
2023-01-03T19:31:29.855Z,101352.03
2023-01-03T19:33:57.819Z,101358.22
2023-01-03T19:36:27.275Z,101343.16
2023-01-03T19:38:55.494Z,101348.47
2023-01-03T19:41:23.519Z,101341.41
2023-01-03T19:43:51.631Z,101241.38
2023-01-03T19:46:20.285Z,101358.16
2023-01-03T19:48:48.853Z,101344.88
2023-01-03T19:51:16.680Z,101272.31
2023-01-03T19:53:46.029Z,101329.84
2023-01-03T19:56:23.829Z,101344.84
2023-01-03T19:58:54.465Z,101334.22
2023-01-03T20:01:26.073Z,101345.72
2023-01-03T20:03:54.490Z,101230.75
2023-01-03T20:06:22.687Z,101340.50
2023-01-03T20:08:53.775Z,101139.75
2023-01-03T20:11:23.960Z,101337.91
2023-01-03T20:13:52.014Z,101330.75
2023-01-03T20:16:19.971Z,101315.69
2023-01-03T20:18:48.684Z,101320.16
2023-01-03T20:21:22.850Z,101304.19
2023-01-03T20:23:55.464Z,101323.69
2023-01-03T20:26:25.718Z,101313.97
2023-01-03T20:28:55.420Z,101318.38
2023-01-03T20:31:23.756Z,101228.06
2023-01-03T20:33:52.359Z,101263.41
2023-01-03T20:36:24.152Z,101315.56
2023-01-03T20:38:56.276Z,101305.91
2023-01-03T20:41:36.033Z,101310.34
2023-01-03T20:44:04.750Z,101098.13
2023-01-03T20:46:32.904Z,101321.88
2023-01-03T20:49:02.480Z,101280.22
2023-01-03T20:51:30.515Z,101267.88
2023-01-03T20:53:59.951Z,101288.16
2023-01-03T20:56:28.476Z,101059.22
2023-01-03T20:58:56.373Z,101283.78
2023-01-03T21:01:24.802Z,101225.31
2023-01-03T21:03:53.704Z,101280.97
2023-01-03T21:06:23.470Z,101275.66
2023-01-03T21:08:58.379Z,101063.59
2023-01-03T21:11:29.504Z,101258.97
2023-01-03T21:13:58.426Z,101257.09
2023-01-03T21:16:34.917Z,101194.31
2023-01-03T21:19:05.360Z,101125.41
2023-01-03T21:21:33.802Z,101250.94
2023-01-03T21:24:02.368Z,101250.06
2023-01-03T21:26:32.036Z,101248.28
2023-01-03T21:29:00.714Z,101204.06
2023-01-03T21:31:28.930Z,101258.91
2023-01-03T21:33:56.903Z,101243.88
2023-01-03T21:36:27.843Z,101250.94
2023-01-03T21:38:56.363Z,101186.28
2023-01-03T21:41:26.094Z,101246.50
2023-01-03T21:43:57.311Z,101235.88
2023-01-03T21:46:26.137Z,101209.28
2023-01-03T21:48:54.608Z,101211.13
2023-01-03T21:51:33.508Z,100989.31
2023-01-03T21:54:06.267Z,101044.94
2023-01-03T21:56:36.226Z,101204.88
2023-01-03T21:59:05.489Z,101165.94
2023-01-03T22:01:53.485Z,101206.59
2023-01-03T22:04:20.553Z,101196.00
2023-01-03T22:06:48.489Z,101193.38
2023-01-03T22:09:30.453Z,101180.09
2023-01-03T22:11:58.379Z,101172.13
2023-01-03T22:14:27.862Z,101090.84
2023-01-03T22:16:55.825Z,101181.84
2023-01-03T22:19:24.182Z,101165.91
2023-01-03T22:21:52.081Z,101146.53
2023-01-03T22:24:20.124Z,101172.16
2023-01-03T22:26:48.057Z,101172.94
2023-01-03T22:29:16.144Z,101187.16
2023-01-03T22:31:46.696Z,101150.03
2023-01-03T22:34:14.787Z,101209.31
2023-01-03T22:36:42.750Z,101077.53
2023-01-03T22:39:10.922Z,101132.19
2023-01-03T22:41:39.217Z,101154.28
2023-01-03T22:44:07.066Z,101196.69
2023-01-03T22:46:35.072Z,101192.28
2023-01-03T22:49:04.771Z,101157.84
2023-01-03T22:51:32.705Z,101067.69
2023-01-03T22:54:00.634Z,101195.84
2023-01-03T22:56:28.537Z,101172.78
2023-01-03T22:58:56.459Z,101188.72
2023-01-03T23:01:28.199Z,101012.00
2023-01-03T23:04:00.146Z,101178.97
2023-01-03T23:06:31.059Z,101177.25
2023-01-03T23:08:59.221Z,101154.25
2023-01-03T23:11:47.515Z,101127.69
2023-01-03T23:14:17.820Z,101122.47
2023-01-03T23:16:46.063Z,101162.19
2023-01-03T23:19:15.701Z,101154.22
2023-01-03T23:21:46.239Z,101022.69
2023-01-03T23:24:15.828Z,101151.59
2023-01-03T23:26:44.639Z,101083.53
2023-01-03T23:29:14.247Z,101093.22
2023-01-03T23:31:42.419Z,101145.25
2023-01-03T23:34:11.641Z,101117.03
2023-01-03T23:36:39.837Z,101104.66
2023-01-03T23:39:12.622Z,101097.59
2023-01-03T23:41:40.970Z,101121.53
2023-01-03T23:44:09.260Z,101118.88
2023-01-03T23:46:37.301Z,101018.16
2023-01-03T23:49:05.164Z,101103.88
2023-01-03T23:51:33.464Z,101100.31
2023-01-03T23:54:01.337Z,101086.19
2023-01-03T23:56:30.615Z,101044.69
2023-01-03T23:58:59.193Z,101082.69
